^^
Grace C. Lehan Memorial Weather Station Historical Data
Daily Summary for May 21, 2022 Units:  Both    English   Metric
Daily Weekly Monthly Yearly
  High: Low: Average:
Temperature: 90.3 °F /  32.4 °C 63.1 °F /  17.3 °C 74.8 °F /  23.8 °C
Dew Point: 74.9 °F /  23.8 °C 61.3 °F /  16.3 °C 67.9 °F /  19.9 °C
Humidity: 96% 51.7% 81%
Wind Speed: 2.1mph /  3.4km/h - 0.1mph /  0.2km/h
Wind Gust: 12mph /  19.3km/h - -
Wind- - South
Pressure: 30.00 in /  1015.8 hPa 29.90 in /  1012.4 hPa -
Precipitation: 0.01 in /  0.25 mm    
 
 
Tabular Data for May 21, 2022
Time Temperature Dew Point Pressure Wind Wind Speed Wind Gust Humidity Rainfall Rate (Hourly) solar
00:00 63.1 °F /  17.3 °C 61.3 °F /  16.3 °C 29.95in /  1014.1hPa Calm   3mph /  4.8km/h 94% 0.00in /  0mm 0 W/m2
00:09 63.1 °F /  17.3 °C 61.3 °F /  16.3 °C 29.96in /  1014.4hPa Calm     94% 0.00in /  0mm 0 W/m2
00:14 63.1 °F /  17.3 °C 61.4 °F /  16.3 °C 29.96in /  1014.4hPa Calm     94% 0.00in /  0mm 0 W/m2
00:19 63.2 °F /  17.3 °C 61.4 °F /  16.3 °C 29.95in /  1014.1hPa Calm     94% 0.00in /  0mm 0 W/m2
00:24 63.2 °F /  17.3 °C 61.4 °F /  16.3 °C 29.95in /  1014.1hPa Calm     94% 0.00in /  0mm 0 W/m2
00:29 63.2 °F /  17.3 °C 61.4 °F /  16.3 °C 29.95in /  1014.1hPa Calm     94% 0.00in /  0mm 0 W/m2
00:34 63.2 °F /  17.3 °C 61.4 °F /  16.3 °C 29.95in /  1014.1hPa Calm     94% 0.00in /  0mm 0 W/m2
00:39 63.2 °F /  17.3 °C 61.4 °F /  16.3 °C 29.95in /  1014.1hPa Calm     94% 0.00in /  0mm 0 W/m2
00:44 63.2 °F /  17.3 °C 61.5 °F /  16.4 °C 29.95in /  1014.1hPa Calm     94% 0.00in /  0mm 0 W/m2
00:49 63.2 °F /  17.3 °C 61.5 °F /  16.4 °C 29.95in /  1014.1hPa Calm     94% 0.00in /  0mm 0 W/m2
00:54 63.2 °F /  17.3 °C 61.5 °F /  16.4 °C 29.94in /  1013.8hPa Calm     94% 0.00in /  0mm 0 W/m2
00:59 63.2 °F /  17.3 °C 61.5 °F /  16.4 °C 29.94in /  1013.8hPa Calm     94% 0.00in /  0mm 0 W/m2
01:04 63.3 °F /  17.4 °C 61.5 °F /  16.4 °C 29.94in /  1013.8hPa Calm     94% 0.00in /  0mm 0 W/m2
01:09 63.3 °F /  17.4 °C 61.5 °F /  16.4 °C 29.94in /  1013.8hPa Calm     94% 0.00in /  0mm 0 W/m2
01:14 63.3 °F /  17.4 °C 61.6 °F /  16.4 °C 29.94in /  1013.8hPa Calm     94% 0.00in /  0mm 0 W/m2
01:19 63.3 °F /  17.4 °C 61.6 °F /  16.4 °C 29.94in /  1013.8hPa Calm     94% 0.00in /  0mm 0 W/m2
01:24 63.2 °F /  17.3 °C 61.5 °F /  16.4 °C 29.94in /  1013.8hPa Calm     94% 0.00in /  0mm 0 W/m2
01:29 63.2 °F /  17.3 °C 61.5 °F /  16.4 °C 29.93in /  1013.4hPa Calm     94% 0.00in /  0mm 0 W/m2
01:34 63.2 °F /  17.3 °C 61.5 °F /  16.4 °C 29.93in /  1013.4hPa Calm     94% 0.00in /  0mm 0 W/m2
01:39 63.2 °F /  17.3 °C 61.7 °F /  16.5 °C 29.93in /  1013.4hPa Calm     94.9% 0.00in /  0mm 0 W/m2
01:44 63.3 °F /  17.4 °C 61.8 °F /  16.6 °C 29.93in /  1013.4hPa Calm     95% 0.00in /  0mm 0 W/m2
01:49 63.3 °F /  17.4 °C 61.9 °F /  16.6 °C 29.93in /  1013.4hPa Calm     95% 0.00in /  0mm 0 W/m2
01:54 63.4 °F /  17.4 °C 62 °F /  16.7 °C 29.93in /  1013.4hPa Calm     95% 0.00in /  0mm 0 W/m2
01:59 63.4 °F /  17.4 °C 62 °F /  16.7 °C 29.93in /  1013.4hPa Calm     95% 0.00in /  0mm 0 W/m2
02:04 63.5 °F /  17.5 °C 62.1 °F /  16.7 °C 29.93in /  1013.4hPa Calm     95% 0.00in /  0mm 0 W/m2
02:09 63.5 °F /  17.5 °C 62.1 °F /  16.7 °C 29.93in /  1013.4hPa Calm     95% 0.00in /  0mm 0 W/m2
02:14 63.5 °F /  17.5 °C 62.1 °F /  16.7 °C 29.92in /  1013.1hPa Calm     95% 0.00in /  0mm 0 W/m2
02:19 63.5 °F /  17.5 °C 62.1 °F /  16.7 °C 29.92in /  1013.1hPa Calm     95% 0.00in /  0mm 0 W/m2
02:24 63.5 °F /  17.5 °C 62.1 °F /  16.7 °C 29.93in /  1013.4hPa Calm     95% 0.00in /  0mm 0 W/m2
02:29 63.5 °F /  17.5 °C 62.1 °F /  16.7 °C 29.92in /  1013.1hPa Calm     95% 0.00in /  0mm 0 W/m2
02:34 63.6 °F /  17.6 °C 62.1 °F /  16.7 °C 29.92in /  1013.1hPa Calm     95% 0.00in /  0mm 0 W/m2
02:39 63.6 °F /  17.6 °C 62.1 °F /  16.7 °C 29.92in /  1013.1hPa Calm     95% 0.00in /  0mm 0 W/m2
02:44 63.6 °F /  17.6 °C 62.1 °F /  16.7 °C 29.92in /  1013.1hPa Calm     95% 0.01in /  0.25mm 0 W/m2
02:49 63.6 °F /  17.6 °C 62.1 °F /  16.7 °C 29.92in /  1013.1hPa Calm     95% 0.01in /  0.25mm 0 W/m2
02:54 63.6 °F /  17.6 °C 62.1 °F /  16.7 °C 29.92in /  1013.1hPa Calm     95% 0.01in /  0.25mm 0 W/m2
02:59 63.5 °F /  17.5 °C 62.1 °F /  16.7 °C 29.92in /  1013.1hPa Calm     95% 0.01in /  0.25mm 0 W/m2
03:04 63.5 °F /  17.5 °C 62.1 °F /  16.7 °C 29.92in /  1013.1hPa Calm     95% 0.01in /  0.25mm 0 W/m2
03:09 63.6 °F /  17.6 °C 62.1 °F /  16.7 °C 29.92in /  1013.1hPa Calm     95% 0.01in /  0.25mm 0 W/m2
03:14 63.6 °F /  17.6 °C 62.1 °F /  16.7 °C 29.92in /  1013.1hPa Calm     95% 0.01in /  0.25mm 0 W/m2
03:19 63.5 °F /  17.5 °C 62.1 °F /  16.7 °C 29.92in /  1013.1hPa Calm     95% 0.01in /  0.25mm 0 W/m2
03:24 63.6 °F /  17.6 °C 62.1 °F /  16.7 °C 29.92in /  1013.1hPa Calm     95% 0.01in /  0.25mm 0 W/m2
03:28 63.6 °F /  17.6 °C 62.2 °F /  16.8 °C 29.92in /  1013.1hPa Calm     95% 0.01in /  0.25mm 0 W/m2
03:34 63.6 °F /  17.6 °C 62.2 °F /  16.8 °C 29.91in /  1012.8hPa Calm     95% 0.01in /  0.25mm 0 W/m2
03:39 63.6 °F /  17.6 °C 62.2 °F /  16.8 °C 29.91in /  1012.8hPa Calm     95% 0.01in /  0.25mm 0 W/m2
03:44 63.6 °F /  17.6 °C 62.2 °F /  16.8 °C 29.91in /  1012.8hPa Calm     95% 0.01in /  0.25mm 0 W/m2
03:49 63.6 °F /  17.6 °C 62.2 °F /  16.8 °C 29.91in /  1012.8hPa Calm     95% 0.01in /  0.25mm 0 W/m2
03:54 63.7 °F /  17.6 °C 62.2 °F /  16.8 °C 29.91in /  1012.8hPa Calm     95% 0.01in /  0.25mm 0 W/m2
03:59 63.7 °F /  17.6 °C 62.2 °F /  16.8 °C 29.91in /  1012.8hPa Calm     95% 0.01in /  0.25mm 0 W/m2
04:00 63.7 °F /  17.6 °C 62.2 °F /  16.8 °C 29.91in /  1012.8hPa Calm     95% 0.01in /  0.25mm 0 W/m2
04:09 63.7 °F /  17.6 °C 62.3 °F /  16.8 °C 29.91in /  1012.8hPa Calm     95% 0.00in /  0mm 0 W/m2
04:14 63.8 °F /  17.7 °C 62.3 °F /  16.8 °C 29.91in /  1012.8hPa Calm     95% 0.00in /  0mm 0 W/m2
04:19 63.8 °F /  17.7 °C 62.3 °F /  16.8 °C 29.90in /  1012.4hPa Calm     95% 0.00in /  0mm 0 W/m2
04:24 63.8 °F /  17.7 °C 62.3 °F /  16.8 °C 29.90in /  1012.4hPa Calm     95% 0.00in /  0mm 0 W/m2
04:29 63.8 °F /  17.7 °C 62.3 °F /  16.8 °C 29.90in /  1012.4hPa Calm     95% 0.00in /  0mm 0 W/m2
04:34 63.8 °F /  17.7 °C 62.3 °F /  16.8 °C 29.90in /  1012.4hPa Calm     95% 0.00in /  0mm 0 W/m2
04:39 63.8 °F /  17.7 °C 62.3 °F /  16.8 °C 29.90in /  1012.4hPa Calm     95% 0.00in /  0mm 0 W/m2
04:44 63.8 °F /  17.7 °C 62.4 °F /  16.9 °C 29.90in /  1012.4hPa Calm     95.3% 0.00in /  0mm 0 W/m2
04:49 63.8 °F /  17.7 °C 62.6 °F /  17 °C 29.90in /  1012.4hPa Calm     95.9% 0.00in /  0mm 0 W/m2
04:54 63.8 °F /  17.7 °C 62.6 °F /  17 °C 29.90in /  1012.4hPa Calm     96% 0.00in /  0mm 0 W/m2
04:59 63.8 °F /  17.7 °C 62.6 °F /  17 °C 29.90in /  1012.4hPa Calm     96% 0.00in /  0mm 0 W/m2
05:04 63.8 °F /  17.7 °C 62.6 °F /  17 °C 29.90in /  1012.4hPa Calm     96% 0.00in /  0mm 0 W/m2
05:09 63.9 °F /  17.7 °C 62.7 °F /  17.1 °C 29.90in /  1012.4hPa Calm     96% 0.00in /  0mm 0 W/m2
05:14 63.9 °F /  17.7 °C 62.8 °F /  17.1 °C 29.91in /  1012.8hPa Calm     96% 0.00in /  0mm 0 W/m2
05:19 64 °F /  17.8 °C 62.8 °F /  17.1 °C 29.91in /  1012.8hPa Calm     96% 0.00in /  0mm 0 W/m2
05:24 64 °F /  17.8 °C 62.8 °F /  17.1 °C 29.91in /  1012.8hPa Calm     96% 0.00in /  0mm 0 W/m2
05:29 64 °F /  17.8 °C 62.8 °F /  17.1 °C 29.91in /  1012.8hPa Calm     96% 0.00in /  0mm 0 W/m2
05:34 64 °F /  17.8 °C 62.9 °F /  17.2 °C 29.91in /  1012.8hPa Calm     96% 0.00in /  0mm 0 W/m2
05:36 64 °F /  17.8 °C 62.8 °F /  17.1 °C 29.91in /  1012.8hPa Calm     96% 0.00in /  0mm 0 W/m2
06:00 64.1 °F /  17.8 °C 62.9 °F /  17.2 °C 29.92in /  1013.1hPa Calm     96% 0.00in /  0mm 4 W/m2
06:30 64.2 °F /  17.9 °C 63 °F /  17.2 °C 29.93in /  1013.4hPa Calm     96% 0.00in /  0mm 22 W/m2
07:00 64.3 °F /  17.9 °C 63.1 °F /  17.3 °C 29.94in /  1013.8hPa Calm     96% 0.00in /  0mm 37 W/m2
07:30 64.4 °F /  18 °C 63.2 °F /  17.3 °C 29.96in /  1014.4hPa Calm     96% 0.00in /  0mm 29 W/m2
08:04 64.7 °F /  18.2 °C 63.5 °F /  17.5 °C 29.96in /  1014.4hPa Calm     96% 0.00in /  0mm 51 W/m2
08:09 64.7 °F /  18.2 °C 63.5 °F /  17.5 °C 29.97in /  1014.8hPa Calm     96% 0.00in /  0mm 58 W/m2
08:14 64.8 °F /  18.2 °C 63.6 °F /  17.6 °C 29.97in /  1014.8hPa Calm     96% 0.00in /  0mm 65 W/m2
08:19 64.8 °F /  18.2 °C 63.6 °F /  17.6 °C 29.97in /  1014.8hPa Calm     96% 0.00in /  0mm 76 W/m2
08:24 64.8 °F /  18.2 °C 63.6 °F /  17.6 °C 29.97in /  1014.8hPa Calm     96% 0.00in /  0mm 86 W/m2
08:29 64.7 °F /  18.2 °C 63.6 °F /  17.6 °C 29.97in /  1014.8hPa Calm     96% 0.00in /  0mm 90 W/m2
08:34 64.8 °F /  18.2 °C 63.6 °F /  17.6 °C 29.97in /  1014.8hPa Calm     96% 0.00in /  0mm 86 W/m2
08:39 64.9 °F /  18.3 °C 63.8 °F /  17.7 °C 29.97in /  1014.8hPa Calm     96% 0.00in /  0mm 72 W/m2
08:44 65 °F /  18.3 °C 63.8 °F /  17.7 °C 29.97in /  1014.8hPa Calm     96% 0.00in /  0mm 65 W/m2
08:49 65 °F /  18.3 °C 63.8 °F /  17.7 °C 29.97in /  1014.8hPa Calm     96% 0.00in /  0mm 130 W/m2
08:54 65.1 °F /  18.4 °C 63.9 °F /  17.7 °C 29.98in /  1015.1hPa Calm     96% 0.00in /  0mm 148 W/m2
08:59 65.2 °F /  18.4 °C 64 °F /  17.8 °C 29.98in /  1015.1hPa Calm     96% 0.00in /  0mm 163 W/m2
09:04 65.3 °F /  18.5 °C 64.1 °F /  17.8 °C 29.98in /  1015.1hPa Calm     96% 0.00in /  0mm 204 W/m2
09:09 65.5 °F /  18.6 °C 64.4 °F /  18 °C 29.99in /  1015.5hPa Calm     96% 0.00in /  0mm 206 W/m2
09:14 65.7 °F /  18.7 °C 64.5 °F /  18.1 °C 29.99in /  1015.5hPa Calm     96% 0.00in /  0mm 214 W/m2
09:19 65.6 °F /  18.7 °C 64.5 °F /  18.1 °C 29.99in /  1015.5hPa Calm     96% 0.00in /  0mm 128 W/m2
09:24 65.7 °F /  18.7 °C 64.5 °F /  18.1 °C 29.99in /  1015.5hPa Calm     96% 0.00in /  0mm 134 W/m2
09:29 65.8 °F /  18.8 °C 64.6 °F /  18.1 °C 29.99in /  1015.5hPa Calm     96% 0.00in /  0mm 278 W/m2
09:34 66 °F /  18.9 °C 64.8 °F /  18.2 °C 29.99in /  1015.5hPa Calm     96% 0.00in /  0mm 306 W/m2
09:39 66.4 °F /  19.1 °C 65.2 °F /  18.4 °C 29.99in /  1015.5hPa Calm     96% 0.00in /  0mm 406 W/m2
09:44 66.8 °F /  19.3 °C 65.6 °F /  18.7 °C 29.99in /  1015.5hPa Calm     96% 0.00in /  0mm 396 W/m2
09:49 67 °F /  19.4 °C 65.8 °F /  18.8 °C 29.99in /  1015.5hPa Calm     96% 0.00in /  0mm 325 W/m2
09:54 67.1 °F /  19.5 °C 65.9 °F /  18.8 °C 29.99in /  1015.5hPa Calm     96% 0.00in /  0mm 274 W/m2
09:59 67.1 °F /  19.5 °C 65.9 °F /  18.8 °C 29.99in /  1015.5hPa Calm     96% 0.00in /  0mm 274 W/m2
10:04 67.3 °F /  19.6 °C 66 °F /  18.9 °C 29.99in /  1015.5hPa Calm     95.7% 0.00in /  0mm 232 W/m2
10:09 67.6 °F /  19.8 °C 66.3 °F /  19.1 °C 29.99in /  1015.5hPa Calm     95.5% 0.00in /  0mm 204 W/m2
10:14 67.8 °F /  19.9 °C 66.4 °F /  19.1 °C 29.99in /  1015.5hPa Calm     95.1% 0.00in /  0mm 248 W/m2
10:19 68 °F /  20 °C 66.5 °F /  19.2 °C 29.99in /  1015.5hPa Calm     95% 0.00in /  0mm 287 W/m2
10:24 68.2 °F /  20.1 °C 66.8 °F /  19.3 °C 29.99in /  1015.5hPa Calm     95% 0.00in /  0mm 315 W/m2
10:29 68.5 °F /  20.3 °C 66.9 °F /  19.4 °C 29.99in /  1015.5hPa Calm     94.5% 0.00in /  0mm 309 W/m2
10:34 68.8 °F /  20.4 °C 67 °F /  19.4 °C 29.99in /  1015.5hPa Calm     94% 0.00in /  0mm 550 W/m2
10:39 69.3 °F /  20.7 °C 67.5 °F /  19.7 °C 29.99in /  1015.5hPa Calm     94% 0.00in /  0mm 550 W/m2
10:44 69.7 °F /  20.9 °C 67.9 °F /  19.9 °C 30.00in /  1015.8hPa Calm     93.8% 0.00in /  0mm 309 W/m2
10:49 70 °F /  21.1 °C 67.8 °F /  19.9 °C 30.00in /  1015.8hPa Calm     92.7% 0.00in /  0mm 341 W/m2
10:54 70.2 °F /  21.2 °C 67.7 °F /  19.8 °C 30.00in /  1015.8hPa Calm     91.8% 0.00in /  0mm 350 W/m2
10:59 70.5 °F /  21.4 °C 67.8 °F /  19.9 °C 30.00in /  1015.8hPa Calm     91.3% 0.00in /  0mm 506 W/m2
11:04 70.8 °F /  21.6 °C 68.1 °F /  20.1 °C 30.00in /  1015.8hPa Calm   1mph /  1.6km/h 91.1% 0.00in /  0mm 599 W/m2
11:09 71.2 °F /  21.8 °C 68.4 °F /  20.2 °C 30.00in /  1015.8hPa Calm   1mph /  1.6km/h 90.7% 0.00in /  0mm 431 W/m2
11:14 71.7 °F /  22.1 °C 68.6 °F /  20.3 °C 30.00in /  1015.8hPa Calm   1mph /  1.6km/h 90% 0.00in /  0mm 540 W/m2
11:19 72.2 °F /  22.3 °C 69 °F /  20.6 °C 30.00in /  1015.8hPa Calm   1mph /  1.6km/h 89.5% 0.00in /  0mm 708 W/m2
11:24 72.7 °F /  22.6 °C 69.1 °F /  20.6 °C 30.00in /  1015.8hPa Calm   1mph /  1.6km/h 88.4% 0.00in /  0mm 510 W/m2
11:29 73.2 °F /  22.9 °C 69.2 °F /  20.7 °C 30.00in /  1015.8hPa Calm   1mph /  1.6km/h 87.4% 0.00in /  0mm 731 W/m2
11:34 74 °F /  23.3 °C 70 °F /  21.1 °C 30.00in /  1015.8hPa Calm   1mph /  1.6km/h 87.4% 0.00in /  0mm 977 W/m2
11:39 74.8 °F /  23.8 °C 70.8 °F /  21.6 °C 30.00in /  1015.8hPa Calm   1mph /  1.6km/h 87.3% 0.00in /  0mm 944 W/m2
11:44 75.7 °F /  24.3 °C 71 °F /  21.7 °C 30.00in /  1015.8hPa Calm   1mph /  1.6km/h 85.6% 0.00in /  0mm 914 W/m2
11:49 76.3 °F /  24.6 °C 70.8 °F /  21.6 °C 30.00in /  1015.8hPa Calm   1mph /  1.6km/h 83.2% 0.00in /  0mm 928 W/m2
11:54 76.6 °F /  24.8 °C 70.7 °F /  21.5 °C 30.00in /  1015.8hPa Calm   1mph /  1.6km/h 82.1% 0.00in /  0mm 937 W/m2
11:59 76.8 °F /  24.9 °C 70.7 °F /  21.5 °C 30.00in /  1015.8hPa Calm   1mph /  1.6km/h 81.4% 0.00in /  0mm 937 W/m2
12:04 77.2 °F /  25.1 °C 70.6 °F /  21.4 °C 29.99in /  1015.5hPa Calm     80% 0.00in /  0mm 898 W/m2
12:09 77.4 °F /  25.2 °C 71.1 °F /  21.7 °C 29.99in /  1015.5hPa Calm     80.9% 0.00in /  0mm 909 W/m2
12:14 77.9 °F /  25.5 °C 71.4 °F /  21.9 °C 29.99in /  1015.5hPa Calm     80.5% 0.00in /  0mm 872 W/m2
12:19 78.4 °F /  25.8 °C 71.4 °F /  21.9 °C 29.99in /  1015.5hPa Calm     79% 0.00in /  0mm 791 W/m2
12:24 78.6 °F /  25.9 °C 71.2 °F /  21.8 °C 29.98in /  1015.1hPa Calm     78% 0.00in /  0mm 838 W/m2
12:29 78.8 °F /  26 °C 71 °F /  21.7 °C 29.98in /  1015.1hPa Calm     76.9% 0.00in /  0mm 926 W/m2
12:34 79.1 °F /  26.2 °C 71.7 °F /  22.1 °C 29.98in /  1015.1hPa WNW 0.2mph /  0.3km/h 2mph /  3.2km/h 78.3% 0.00in /  0mm 942 W/m2
12:39 79.5 °F /  26.4 °C 71.9 °F /  22.2 °C 29.97in /  1014.8hPa Calm   2mph /  3.2km/h 77.7% 0.00in /  0mm 919 W/m2
12:44 79.8 °F /  26.6 °C 71.3 °F /  21.8 °C 29.97in /  1014.8hPa Calm   2mph /  3.2km/h 75.3% 0.00in /  0mm 951 W/m2
12:49 80 °F /  26.7 °C 71.7 °F /  22.1 °C 29.97in /  1014.8hPa Calm   2mph /  3.2km/h 75.7% 0.00in /  0mm 951 W/m2
12:54 80.2 °F /  26.8 °C 71.9 °F /  22.2 °C 29.96in /  1014.4hPa Calm   2mph /  3.2km/h 75.7% 0.00in /  0mm 949 W/m2
12:59 80.4 °F /  26.9 °C 71.8 °F /  22.1 °C 29.96in /  1014.4hPa Calm   2mph /  3.2km/h 75.1% 0.00in /  0mm 963 W/m2
13:04 80.8 °F /  27.1 °C 72.4 °F /  22.4 °C 29.96in /  1014.4hPa North 0.2mph /  0.3km/h 3mph /  4.8km/h 75.7% 0.00in /  0mm 958 W/m2
13:09 81.3 °F /  27.4 °C 72.3 °F /  22.4 °C 29.96in /  1014.4hPa Calm   3mph /  4.8km/h 74.3% 0.00in /  0mm 949 W/m2
13:14 81.7 °F /  27.6 °C 72.8 °F /  22.7 °C 29.96in /  1014.4hPa Calm   3mph /  4.8km/h 74.4% 0.00in /  0mm 946 W/m2
13:19 82.3 °F /  27.9 °C 73.5 °F /  23.1 °C 29.96in /  1014.4hPa Calm   3mph /  4.8km/h 75% 0.00in /  0mm 940 W/m2
13:24 82.7 °F /  28.2 °C 72.9 °F /  22.7 °C 29.96in /  1014.4hPa Calm   3mph /  4.8km/h 72.4% 0.00in /  0mm 940 W/m2
13:29 82.8 °F /  28.2 °C 72.9 °F /  22.7 °C 29.96in /  1014.4hPa NW 0.5mph /  0.8km/h 4mph /  6.4km/h 71.9% 0.00in /  0mm 935 W/m2
13:34 83.1 °F /  28.4 °C 73 °F /  22.8 °C 29.96in /  1014.4hPa Calm   4mph /  6.4km/h 71.8% 0.00in /  0mm 933 W/m2
13:39 83.4 °F /  28.6 °C 73.6 °F /  23.1 °C 29.96in /  1014.4hPa Calm     72.3% 0.00in /  0mm 933 W/m2
13:44 83.8 °F /  28.8 °C 73.6 °F /  23.1 °C 29.96in /  1014.4hPa NW 0.2mph /  0.3km/h 3mph /  4.8km/h 71.3% 0.00in /  0mm 928 W/m2
13:49 84.2 °F /  29 °C 73.7 °F /  23.2 °C 29.96in /  1014.4hPa NNW 0.7mph /  1.1km/h 4mph /  6.4km/h 70.8% 0.00in /  0mm 923 W/m2
13:54 84.8 °F /  29.3 °C 73.6 °F /  23.1 °C 29.96in /  1014.4hPa Calm   4mph /  6.4km/h 69.3% 0.00in /  0mm 918 W/m2
13:59 85.3 °F /  29.6 °C 74 °F /  23.3 °C 29.96in /  1014.4hPa NNE 0.2mph /  0.3km/h 4mph /  6.4km/h 69.2% 0.00in /  0mm 914 W/m2
14:04 85.8 °F /  29.9 °C 74.1 °F /  23.4 °C 29.96in /  1014.4hPa NE 0.1mph /  0.2km/h 4mph /  6.4km/h 68% 0.00in /  0mm 905 W/m2
14:09 86.1 °F /  30.1 °C 73.7 °F /  23.2 °C 29.96in /  1014.4hPa NE 0.1mph /  0.2km/h 3mph /  4.8km/h 66.6% 0.00in /  0mm 904 W/m2
14:14 86.3 °F /  30.2 °C 74.5 °F /  23.6 °C 29.95in /  1014.1hPa Calm   3mph /  4.8km/h 67.9% 0.00in /  0mm 898 W/m2
14:19 86.7 °F /  30.4 °C 74.7 °F /  23.7 °C 29.95in /  1014.1hPa Calm   3mph /  4.8km/h 67.6% 0.00in /  0mm 891 W/m2
14:24 87 °F /  30.6 °C 74.9 °F /  23.8 °C 29.95in /  1014.1hPa Calm   3mph /  4.8km/h 67.4% 0.00in /  0mm 889 W/m2
14:29 87.2 °F /  30.7 °C 74.7 °F /  23.7 °C 29.94in /  1013.8hPa Calm   3mph /  4.8km/h 66.6% 0.00in /  0mm 882 W/m2
14:34 87.3 °F /  30.7 °C 74.2 °F /  23.4 °C 29.95in /  1014.1hPa Calm   3mph /  4.8km/h 65.1% 0.00in /  0mm 875 W/m2
14:39 87.4 °F /  30.8 °C 74.5 °F /  23.6 °C 29.95in /  1014.1hPa Calm     65.6% 0.00in /  0mm 867 W/m2
14:44 87.5 °F /  30.8 °C 74.3 °F /  23.5 °C 29.94in /  1013.8hPa NE 0.1mph /  0.2km/h 2mph /  3.2km/h 64.9% 0.00in /  0mm 860 W/m2
14:49 87.6 °F /  30.9 °C 74.5 °F /  23.6 °C 29.94in /  1013.8hPa Calm   2mph /  3.2km/h 65.4% 0.00in /  0mm 849 W/m2
14:54 87.8 °F /  31 °C 74.6 °F /  23.7 °C 29.94in /  1013.8hPa NE 0.1mph /  0.2km/h 2mph /  3.2km/h 65.1% 0.00in /  0mm 842 W/m2
14:59 87.9 °F /  31.1 °C 74 °F /  23.3 °C 29.93in /  1013.4hPa NE 0.2mph /  0.3km/h 2mph /  3.2km/h 63.7% 0.00in /  0mm 837 W/m2
15:04 88 °F /  31.1 °C 74.1 °F /  23.4 °C 29.93in /  1013.4hPa Calm   2mph /  3.2km/h 63.6% 0.00in /  0mm 828 W/m2
15:09 88.3 °F /  31.3 °C 74.3 °F /  23.5 °C 29.93in /  1013.4hPa NE 0.2mph /  0.3km/h 3mph /  4.8km/h 63.5% 0.00in /  0mm 817 W/m2
15:14 88.5 °F /  31.4 °C 74.2 °F /  23.4 °C 29.93in /  1013.4hPa Calm   3mph /  4.8km/h 62.7% 0.00in /  0mm 803 W/m2
15:19 88.6 °F /  31.4 °C 74.2 °F /  23.4 °C 29.93in /  1013.4hPa Calm   3mph /  4.8km/h 62.6% 0.00in /  0mm 795 W/m2
15:24 88.9 °F /  31.6 °C 74.8 °F /  23.8 °C 29.93in /  1013.4hPa Calm   3mph /  4.8km/h 63.3% 0.00in /  0mm 780 W/m2
15:29 89.1 °F /  31.7 °C 74.1 °F /  23.4 °C 29.93in /  1013.4hPa Calm   3mph /  4.8km/h 61.4% 0.00in /  0mm 768 W/m2
15:34 89.4 °F /  31.9 °C 74.5 °F /  23.6 °C 29.93in /  1013.4hPa NW 0.1mph /  0.2km/h 4mph /  6.4km/h 61.6% 0.00in /  0mm 759 W/m2
15:39 89.8 °F /  32.1 °C 74.1 °F /  23.4 °C 29.93in /  1013.4hPa WSW 0.7mph /  1.1km/h 5mph /  8km/h 60.1% 0.00in /  0mm 742 W/m2
15:44 90.1 °F /  32.3 °C 73.6 °F /  23.1 °C 29.93in /  1013.4hPa WSW 0.1mph /  0.2km/h 5mph /  8km/h 58.6% 0.00in /  0mm 724 W/m2
15:49 90.2 °F /  32.3 °C 73 °F /  22.8 °C 29.93in /  1013.4hPa SW 0.4mph /  0.6km/h 5mph /  8km/h 57.2% 0.00in /  0mm 710 W/m2
15:54 90.2 °F /  32.3 °C 73 °F /  22.8 °C 29.92in /  1013.1hPa Calm   5mph /  8km/h 57.2% 0.00in /  0mm 689 W/m2
15:59 90.3 °F /  32.4 °C 73.5 °F /  23.1 °C 29.92in /  1013.1hPa Calm   5mph /  8km/h 58% 0.00in /  0mm 679 W/m2
16:09 90.3 °F /  32.4 °C 73.4 °F /  23 °C 29.92in /  1013.1hPa SSE 0.3mph /  0.5km/h 2mph /  3.2km/h 57.7% 0.00in /  0mm 649 W/m2
16:14 90.1 °F /  32.3 °C 73.6 °F /  23.1 °C 29.92in /  1013.1hPa South 0.4mph /  0.6km/h 4mph /  6.4km/h 58.5% 0.00in /  0mm 90 W/m2
16:19 90 °F /  32.2 °C 73.8 °F /  23.2 °C 29.92in /  1013.1hPa South 0.1mph /  0.2km/h 4mph /  6.4km/h 59.1% 0.00in /  0mm 88 W/m2
16:24 89.9 °F /  32.2 °C 74.1 °F /  23.4 °C 29.92in /  1013.1hPa South 0.5mph /  0.8km/h 4mph /  6.4km/h 59.8% 0.00in /  0mm 86 W/m2
16:29 89.8 °F /  32.1 °C 74.1 °F /  23.4 °C 29.92in /  1013.1hPa South 0.1mph /  0.2km/h 4mph /  6.4km/h 60% 0.00in /  0mm 83 W/m2
16:34 89.8 °F /  32.1 °C 74.3 °F /  23.5 °C 29.92in /  1013.1hPa Calm   4mph /  6.4km/h 60.4% 0.00in /  0mm 81 W/m2
16:39 89.9 °F /  32.2 °C 74.5 °F /  23.6 °C 29.92in /  1013.1hPa SSW 0.7mph /  1.1km/h 5mph /  8km/h 60.6% 0.00in /  0mm 79 W/m2
16:44 90.1 °F /  32.3 °C 73.7 °F /  23.2 °C 29.92in /  1013.1hPa SSW 0.3mph /  0.5km/h 5mph /  8km/h 58.8% 0.00in /  0mm 77 W/m2
16:49 90.1 °F /  32.3 °C 72.1 °F /  22.3 °C 29.92in /  1013.1hPa SSW 0.7mph /  1.1km/h 5mph /  8km/h 55.6% 0.00in /  0mm 74 W/m2
16:54 90.2 °F /  32.3 °C 72.2 °F /  22.3 °C 29.92in /  1013.1hPa SW 1mph /  1.6km/h 5mph /  8km/h 55.5% 0.00in /  0mm 70 W/m2
16:59 90.2 °F /  32.3 °C 71 °F /  21.7 °C 29.92in /  1013.1hPa South 0.7mph /  1.1km/h 6mph /  9.7km/h 53.4% 0.00in /  0mm 69 W/m2
17:04 90.2 °F /  32.3 °C 70.1 °F /  21.2 °C 29.92in /  1013.1hPa South 2.1mph /  3.4km/h 6mph /  9.7km/h 51.9% 0.00in /  0mm 67 W/m2
17:09 90 °F /  32.2 °C 69.9 °F /  21.1 °C 29.92in /  1013.1hPa South 1.1mph /  1.8km/h 12mph /  19.3km/h 51.7% 0.00in /  0mm 65 W/m2
17:14 89.9 °F /  32.2 °C 70.3 °F /  21.3 °C 29.92in /  1013.1hPa South 0.8mph /  1.3km/h 12mph /  19.3km/h 52.7% 0.00in /  0mm 63 W/m2
17:19 89.7 °F /  32.1 °C 70.5 °F /  21.4 °C 29.92in /  1013.1hPa SSW 0.3mph /  0.5km/h 12mph /  19.3km/h 53.4% 0.00in /  0mm 62 W/m2
17:24 89.6 °F /  32 °C 70.5 °F /  21.4 °C 29.92in /  1013.1hPa SSW 1.5mph /  2.4km/h 12mph /  19.3km/h 53.5% 0.00in /  0mm 60 W/m2
17:29 89.4 °F /  31.9 °C 70.9 °F /  21.6 °C 29.92in /  1013.1hPa SSW 1.3mph /  2.1km/h 12mph /  19.3km/h 54.5% 0.00in /  0mm 60 W/m2
17:34 89.1 °F /  31.7 °C 70.9 °F /  21.6 °C 29.92in /  1013.1hPa SSW 0.6mph /  1km/h 12mph /  19.3km/h 55.1% 0.00in /  0mm 58 W/m2
17:39 88.8 °F /  31.6 °C 71.1 °F /  21.7 °C 29.93in /  1013.4hPa SSW 0.3mph /  0.5km/h 3mph /  4.8km/h 56% 0.00in /  0mm 58 W/m2
17:44 88.7 °F /  31.5 °C 71.4 °F /  21.9 °C 29.93in /  1013.4hPa SSW 0.2mph /  0.3km/h 3mph /  4.8km/h 56.8% 0.00in /  0mm 56 W/m2
17:49 88.6 °F /  31.4 °C 71.5 °F /  21.9 °C 29.93in /  1013.4hPa SSW 0.4mph /  0.6km/h 3mph /  4.8km/h 57.2% 0.00in /  0mm 56 W/m2
17:54 88.5 °F /  31.4 °C 71.9 °F /  22.2 °C 29.93in /  1013.4hPa SSW 0.6mph /  1km/h 4mph /  6.4km/h 58% 0.00in /  0mm 54 W/m2
17:59 88.3 °F /  31.3 °C 72.1 °F /  22.3 °C 29.93in /  1013.4hPa SSW 0.2mph /  0.3km/h 4mph /  6.4km/h 58.7% 0.00in /  0mm 54 W/m2
18:04 88.1 °F /  31.2 °C 72.2 °F /  22.3 °C 29.93in /  1013.4hPa SSW 1.4mph /  2.3km/h 6mph /  9.7km/h 59.4% 0.00in /  0mm 53 W/m2
18:09 87.9 °F /  31.1 °C 72.2 °F /  22.3 °C 29.93in /  1013.4hPa South 0.4mph /  0.6km/h 6mph /  9.7km/h 60% 0.00in /  0mm 51 W/m2
18:14 87.5 °F /  30.8 °C 72.2 °F /  22.3 °C 29.93in /  1013.4hPa SSW 1.3mph /  2.1km/h 6mph /  9.7km/h 60.4% 0.00in /  0mm 49 W/m2
18:19 87.2 °F /  30.7 °C 72.1 °F /  22.3 °C 29.93in /  1013.4hPa South 0.8mph /  1.3km/h 6mph /  9.7km/h 61.1% 0.00in /  0mm 49 W/m2
18:24 86.7 °F /  30.4 °C 72.2 °F /  22.3 °C 29.93in /  1013.4hPa South 1mph /  1.6km/h 6mph /  9.7km/h 62% 0.00in /  0mm 47 W/m2
18:29 86.3 °F /  30.2 °C 71.8 °F /  22.1 °C 29.93in /  1013.4hPa South 1.5mph /  2.4km/h 7mph /  11.3km/h 62.2% 0.00in /  0mm 46 W/m2
18:34 85.8 °F /  29.9 °C 71.6 °F /  22 °C 29.93in /  1013.4hPa South 0.5mph /  0.8km/h 7mph /  11.3km/h 62.7% 0.00in /  0mm 46 W/m2
18:39 85.4 °F /  29.7 °C 71.6 °F /  22 °C 29.93in /  1013.4hPa South 0.6mph /  1km/h 7mph /  11.3km/h 63.4% 0.00in /  0mm 44 W/m2
18:44 85.1 °F /  29.5 °C 71.9 °F /  22.2 °C 29.94in /  1013.8hPa SSW 0.1mph /  0.2km/h 7mph /  11.3km/h 64.6% 0.00in /  0mm 42 W/m2
18:49 84.8 °F /  29.3 °C 71.8 °F /  22.1 °C 29.94in /  1013.8hPa SSW 0.3mph /  0.5km/h 7mph /  11.3km/h 65% 0.00in /  0mm 40 W/m2
18:54 84.6 °F /  29.2 °C 71.6 °F /  22 °C 29.94in /  1013.8hPa South 0.3mph /  0.5km/h 7mph /  11.3km/h 65.2% 0.00in /  0mm 39 W/m2
18:59 84.3 °F /  29.1 °C 71.7 °F /  22.1 °C 29.93in /  1013.4hPa South 0.5mph /  0.8km/h 7mph /  11.3km/h 66% 0.00in /  0mm 37 W/m2
19:04 84 °F /  28.9 °C 71.5 °F /  21.9 °C 29.93in /  1013.4hPa South 0.2mph /  0.3km/h 7mph /  11.3km/h 66.2% 0.00in /  0mm 35 W/m2
19:09 83.8 °F /  28.8 °C 71.7 °F /  22.1 °C 29.94in /  1013.8hPa South 0.2mph /  0.3km/h 3mph /  4.8km/h 67% 0.00in /  0mm 32 W/m2
19:14 83.6 °F /  28.7 °C 71.9 °F /  22.2 °C 29.94in /  1013.8hPa Calm   3mph /  4.8km/h 67.8% 0.00in /  0mm 30 W/m2
19:19 83.4 °F /  28.6 °C 71.7 °F /  22.1 °C 29.94in /  1013.8hPa Calm   3mph /  4.8km/h 68% 0.00in /  0mm 28 W/m2
19:24 83.2 °F /  28.4 °C 71.9 °F /  22.2 °C 29.94in /  1013.8hPa Calm   3mph /  4.8km/h 68.9% 0.00in /  0mm 26 W/m2
19:29 83 °F /  28.3 °C 71.7 °F /  22.1 °C 29.94in /  1013.8hPa South 0.1mph /  0.2km/h 3mph /  4.8km/h 69% 0.00in /  0mm 23 W/m2
19:34 82.7 °F /  28.2 °C 71.5 °F /  21.9 °C 29.94in /  1013.8hPa Calm   3mph /  4.8km/h 69% 0.00in /  0mm 21 W/m2
19:39 82.5 °F /  28.1 °C 71.6 °F /  22 °C 29.94in /  1013.8hPa Calm     69.7% 0.00in /  0mm 19 W/m2
19:44 82.2 °F /  27.9 °C 71.4 °F /  21.9 °C 29.93in /  1013.4hPa South 0.1mph /  0.2km/h 4mph /  6.4km/h 70% 0.00in /  0mm 16 W/m2
19:49 81.9 °F /  27.7 °C 71.2 °F /  21.8 °C 29.93in /  1013.4hPa Calm   4mph /  6.4km/h 70.3% 0.00in /  0mm 12 W/m2
19:54 81.5 °F /  27.5 °C 71.2 °F /  21.8 °C 29.92in /  1013.1hPa South 0.4mph /  0.6km/h 4mph /  6.4km/h 71% 0.00in /  0mm 9 W/m2
19:59 81.2 °F /  27.3 °C 70.9 °F /  21.6 °C 29.92in /  1013.1hPa South 0.1mph /  0.2km/h 4mph /  6.4km/h 71% 0.00in /  0mm 5 W/m2
20:09 80.6 °F /  27 °C 70.8 °F /  21.6 °C 29.93in /  1013.4hPa Calm     72% 0.00in /  0mm 0 W/m2
20:14 80.4 °F /  26.9 °C 70.8 °F /  21.6 °C 29.93in /  1013.4hPa Calm   1mph /  1.6km/h 72.5% 0.00in /  0mm 0 W/m2
20:19 80.2 °F /  26.8 °C 70.7 °F /  21.5 °C 29.93in /  1013.4hPa Calm   1mph /  1.6km/h 73% 0.00in /  0mm 0 W/m2
20:24 79.9 °F /  26.6 °C 70.5 °F /  21.4 °C 29.93in /  1013.4hPa Calm   1mph /  1.6km/h 73% 0.00in /  0mm 0 W/m2
20:29 79.8 °F /  26.6 °C 70.7 °F /  21.5 °C 29.93in /  1013.4hPa Calm   1mph /  1.6km/h 73.9% 0.00in /  0mm 0 W/m2
20:34 79.6 °F /  26.4 °C 70.6 °F /  21.4 °C 29.93in /  1013.4hPa South 0.2mph /  0.3km/h 4mph /  6.4km/h 74% 0.00in /  0mm 0 W/m2
20:39 79.4 °F /  26.3 °C 70.4 °F /  21.3 °C 29.93in /  1013.4hPa Calm   4mph /  6.4km/h 74% 0.00in /  0mm 0 W/m2
20:44 79.2 °F /  26.2 °C 70.2 °F /  21.2 °C 29.93in /  1013.4hPa South 0.1mph /  0.2km/h 4mph /  6.4km/h 74% 0.00in /  0mm 0 W/m2
20:49 79 °F /  26.1 °C 70.1 °F /  21.2 °C 29.93in /  1013.4hPa South 0.2mph /  0.3km/h 4mph /  6.4km/h 74.2% 0.00in /  0mm 0 W/m2
20:54 78.8 °F /  26 °C 70.2 °F /  21.2 °C 29.94in /  1013.8hPa Calm   4mph /  6.4km/h 74.8% 0.00in /  0mm 0 W/m2
20:59 78.7 °F /  25.9 °C 70.1 °F /  21.2 °C 29.93in /  1013.4hPa Calm   4mph /  6.4km/h 75% 0.00in /  0mm 0 W/m2
21:04 78.5 °F /  25.8 °C 69.9 °F /  21.1 °C 29.93in /  1013.4hPa South 0.5mph /  0.8km/h 5mph /  8km/h 75% 0.00in /  0mm 0 W/m2
21:09 78.4 °F /  25.8 °C 69.8 °F /  21 °C 29.94in /  1013.8hPa Calm   5mph /  8km/h 75% 0.00in /  0mm 0 W/m2
21:14 78.2 °F /  25.7 °C 69.7 °F /  20.9 °C 29.94in /  1013.8hPa Calm   5mph /  8km/h 75.3% 0.00in /  0mm 0 W/m2
21:19 77.9 °F /  25.5 °C 69.8 °F /  21 °C 29.94in /  1013.8hPa SSW 0.1mph /  0.2km/h 5mph /  8km/h 76% 0.00in /  0mm 0 W/m2
21:24 77.7 °F /  25.4 °C 69.5 °F /  20.8 °C 29.94in /  1013.8hPa Calm   5mph /  8km/h 76% 0.00in /  0mm 0 W/m2
21:29 77.4 °F /  25.2 °C 69.5 °F /  20.8 °C 29.95in /  1014.1hPa Calm   5mph /  8km/h 76.7% 0.00in /  0mm 0 W/m2
21:34 77.2 °F /  25.1 °C 69.4 °F /  20.8 °C 29.95in /  1014.1hPa Calm   5mph /  8km/h 77% 0.00in /  0mm 0 W/m2
21:39 77 °F /  25 °C 69.3 °F /  20.7 °C 29.95in /  1014.1hPa Calm     77% 0.00in /  0mm 0 W/m2
21:44 76.8 °F /  24.9 °C 69.1 °F /  20.6 °C 29.96in /  1014.4hPa Calm     77% 0.00in /  0mm 0 W/m2
21:49 76.6 °F /  24.8 °C 69.2 °F /  20.7 °C 29.96in /  1014.4hPa Calm     77.9% 0.00in /  0mm 0 W/m2
21:54 76.4 °F /  24.7 °C 69.1 °F /  20.6 °C 29.96in /  1014.4hPa Calm     78% 0.00in /  0mm 0 W/m2
21:59 76.2 °F /  24.6 °C 69.1 °F /  20.6 °C 29.97in /  1014.8hPa Calm     78.5% 0.00in /  0mm 0 W/m2
22:04 76 °F /  24.4 °C 69 °F /  20.6 °C 29.97in /  1014.8hPa Calm     79% 0.00in /  0mm 0 W/m2
22:09 75.8 °F /  24.3 °C 68.9 °F /  20.5 °C 29.97in /  1014.8hPa Calm     79.3% 0.00in /  0mm 0 W/m2
22:14 75.6 °F /  24.2 °C 69 °F /  20.6 °C 29.97in /  1014.8hPa Calm     80% 0.00in /  0mm 0 W/m2
22:19 75.5 °F /  24.2 °C 68.9 °F /  20.5 °C 29.97in /  1014.8hPa Calm     80% 0.00in /  0mm 0 W/m2
22:24 75.3 °F /  24.1 °C 68.7 °F /  20.4 °C 29.97in /  1014.8hPa Calm     80% 0.00in /  0mm 0 W/m2
22:29 75.1 °F /  23.9 °C 68.5 °F /  20.3 °C 29.98in /  1015.1hPa Calm     80% 0.00in /  0mm 0 W/m2
22:34 75 °F /  23.9 °C 68.6 °F /  20.3 °C 29.98in /  1015.1hPa Calm     80.6% 0.00in /  0mm 0 W/m2
22:39 74.8 °F /  23.8 °C 68.6 °F /  20.3 °C 29.98in /  1015.1hPa Calm     81% 0.00in /  0mm 0 W/m2
22:44 74.6 °F /  23.7 °C 68.6 °F /  20.3 °C 29.98in /  1015.1hPa Calm     81.6% 0.00in /  0mm 0 W/m2
22:49 74.5 °F /  23.6 °C 68.7 °F /  20.4 °C 29.98in /  1015.1hPa Calm     82% 0.00in /  0mm 0 W/m2
22:54 74.4 °F /  23.6 °C 68.5 °F /  20.3 °C 29.98in /  1015.1hPa Calm     82% 0.00in /  0mm 0 W/m2
22:59 74.3 °F /  23.5 °C 68.4 °F /  20.2 °C 29.98in /  1015.1hPa Calm     82% 0.00in /  0mm 0 W/m2
23:04 74.1 °F /  23.4 °C 68.3 °F /  20.2 °C 29.99in /  1015.5hPa Calm     82% 0.00in /  0mm 0 W/m2
23:08 74 °F /  23.3 °C 68.3 °F /  20.2 °C 29.99in /  1015.5hPa Calm     82.3% 0.00in /  0mm 0 W/m2
Hartford County Weather
Compliments of Weather Underground - 4 mb